sensor_id;sensor_type;location;lat;lon;timestamp;pressure;altitude;pressure_sealevel;temperature;humidity
72120;BME280;59993;53.052;18.576;2022-08-25T06:05:52;101238.03;;;18.83;100.00
72120;BME280;59993;53.052;18.576;2022-08-25T06:08:18;101236.75;;;18.87;100.00
72120;BME280;59993;53.052;18.576;2022-08-25T06:10:44;101245.25;;;18.92;100.00
72120;BME280;59993;53.052;18.576;2022-08-25T06:13:09;101246.78;;;18.95;100.00
72120;BME280;59993;53.052;18.576;2022-08-25T06:15:34;101249.19;;;18.98;100.00
72120;BME280;59993;53.052;18.576;2022-08-25T06:18:00;101249.56;;;19.03;100.00
72120;BME280;59993;53.052;18.576;2022-08-25T06:20:29;101247.56;;;19.05;100.00
72120;BME280;59993;53.052;18.576;2022-08-25T06:22:55;101248.97;;;19.09;100.00
72120;BME280;59993;53.052;18.576;2022-08-25T06:25:22;101251.91;;;19.16;100.00
72120;BME280;59993;53.052;18.576;2022-08-25T06:27:49;101246.94;;;19.21;100.00
72120;BME280;59993;53.052;18.576;2022-08-25T06:30:17;101249.50;;;19.23;100.00
72120;BME280;59993;53.052;18.576;2022-08-25T06:32:44;101246.06;;;19.30;100.00
72120;BME280;59993;53.052;18.576;2022-08-25T06:35:12;101242.09;;;19.34;100.00
72120;BME280;59993;53.052;18.576;2022-08-25T06:37:38;101239.16;;;19.46;100.00
72120;BME280;59993;53.052;18.576;2022-08-25T06:40:06;101235.78;;;19.44;100.00
72120;BME280;59993;53.052;18.576;2022-08-25T06:42:32;101223.03;;;19.46;100.00
72120;BME280;59993;53.052;18.576;2022-08-25T06:44:59;101235.88;;;19.52;100.00
72120;BME280;59993;53.052;18.576;2022-08-25T06:47:24;101232.28;;;19.61;100.00
72120;BME280;59993;53.052;18.576;2022-08-25T06:49:50;101240.13;;;19.73;100.00
72120;BME280;59993;53.052;18.576;2022-08-25T06:52:15;101235.84;;;19.80;100.00
72120;BME280;59993;53.052;18.576;2022-08-25T06:54:41;101242.25;;;19.79;100.00
72120;BME280;59993;53.052;18.576;2022-08-25T06:57:07;101239.84;;;19.76;100.00
72120;BME280;59993;53.052;18.576;2022-08-25T06:59:34;101250.38;;;19.87;100.00
72120;BME280;59993;53.052;18.576;2022-08-25T07:02:00;101240.34;;;19.89;100.00
72120;BME280;59993;53.052;18.576;2022-08-25T07:04:26;101246.47;;;19.99;100.00
72120;BME280;59993;53.052;18.576;2022-08-25T07:06:52;101249.25;;;20.08;100.00
72120;BME280;59993;53.052;18.576;2022-08-25T07:09:17;101238.47;;;20.08;100.00
72120;BME280;59993;53.052;18.576;2022-08-25T07:11:43;101242.47;;;20.03;100.00
72120;BME280;59993;53.052;18.576;2022-08-25T07:14:11;101244.47;;;20.01;100.00
72120;BME280;59993;53.052;18.576;2022-08-25T07:16:38;101247.03;;;20.03;100.00
72120;BME280;59993;53.052;18.576;2022-08-25T07:19:04;101243.63;;;20.01;100.00
72120;BME280;59993;53.052;18.576;2022-08-25T07:21:32;101242.78;;;20.00;100.00
72120;BME280;59993;53.052;18.576;2022-08-25T07:23:57;101250.69;;;20.02;100.00
72120;BME280;59993;53.052;18.576;2022-08-25T07:26:27;101248.47;;;19.97;100.00
72120;BME280;59993;53.052;18.576;2022-08-25T07:28:54;101243.41;;;19.94;100.00
72120;BME280;59993;53.052;18.576;2022-08-25T07:31:19;101254.16;;;19.94;100.00
72120;BME280;59993;53.052;18.576;2022-08-25T07:33:45;101251.63;;;19.93;100.00
72120;BME280;59993;53.052;18.576;2022-08-25T07:36:30;101248.47;;;19.97;100.00
72120;BME280;59993;53.052;18.576;2022-08-25T07:38:59;101255.78;;;20.05;100.00
72120;BME280;59993;53.052;18.576;2022-08-25T07:41:28;101254.31;;;20.11;100.00
72120;BME280;59993;53.052;18.576;2022-08-25T07:43:54;101246.63;;;20.16;100.00
72120;BME280;59993;53.052;18.576;2022-08-25T07:46:20;101242.00;;;20.26;100.00
72120;BME280;59993;53.052;18.576;2022-08-25T07:48:46;101244.25;;;20.39;100.00
72120;BME280;59993;53.052;18.576;2022-08-25T07:51:13;101247.19;;;20.46;100.00
72120;BME280;59993;53.052;18.576;2022-08-25T07:53:40;101237.84;;;20.58;100.00
72120;BME280;59993;53.052;18.576;2022-08-25T07:56:11;101240.59;;;20.66;100.00
72120;BME280;59993;53.052;18.576;2022-08-25T07:58:37;101246.38;;;20.71;100.00
72120;BME280;59993;53.052;18.576;2022-08-25T08:01:04;101243.47;;;20.91;100.00
72120;BME280;59993;53.052;18.576;2022-08-25T08:03:30;101243.63;;;20.89;100.00
72120;BME280;59993;53.052;18.576;2022-08-25T08:05:56;101242.41;;;20.84;100.00
72120;BME280;59993;53.052;18.576;2022-08-25T08:08:21;101253.50;;;20.81;100.00
72120;BME280;59993;53.052;18.576;2022-08-25T08:10:47;101254.16;;;20.74;100.00
72120;BME280;59993;53.052;18.576;2022-08-25T08:13:13;101264.97;;;20.83;100.00
72120;BME280;59993;53.052;18.576;2022-08-25T08:15:41;101261.00;;;20.95;100.00
72120;BME280;59993;53.052;18.576;2022-08-25T08:18:07;101261.06;;;21.03;100.00
72120;BME280;59993;53.052;18.576;2022-08-25T08:20:33;101256.16;;;21.07;100.00
72120;BME280;59993;53.052;18.576;2022-08-25T08:22:59;101254.38;;;21.16;100.00
72120;BME280;59993;53.052;18.576;2022-08-25T08:25:24;101250.66;;;21.17;100.00
72120;BME280;59993;53.052;18.576;2022-08-25T08:27:50;101243.94;;;21.21;100.00
72120;BME280;59993;53.052;18.576;2022-08-25T08:30:16;101251.00;;;21.22;100.00
72120;BME280;59993;53.052;18.576;2022-08-25T08:32:41;101251.03;;;21.30;100.00
72120;BME280;59993;53.052;18.576;2022-08-25T08:35:07;101246.19;;;21.34;100.00
72120;BME280;59993;53.052;18.576;2022-08-25T08:37:33;101251.19;;;21.28;100.00
72120;BME280;59993;53.052;18.576;2022-08-25T08:40:00;101247.41;;;21.47;100.00
72120;BME280;59993;53.052;18.576;2022-08-25T08:48:38;101249.66;;;21.60;100.00
72120;BME280;59993;53.052;18.576;2022-08-25T08:51:34;101242.75;;;21.58;100.00
72120;BME280;59993;53.052;18.576;2022-08-25T08:54:12;101250.84;;;21.66;100.00
72120;BME280;59993;53.052;18.576;2022-08-25T08:57:10;101245.47;;;21.82;100.00
72120;BME280;59993;53.052;18.576;2022-08-25T08:59:47;101228.13;;;21.85;100.00
72120;BME280;59993;53.052;18.576;2022-08-25T09:02:33;101242.31;;;22.04;100.00
72120;BME280;59993;53.052;18.576;2022-08-25T09:05:12;101236.03;;;22.19;100.00
72120;BME280;59993;53.052;18.576;2022-08-25T09:07:44;101238.56;;;22.21;100.00
72120;BME280;59993;53.052;18.576;2022-08-25T09:10:14;101236.72;;;22.30;100.00
72120;BME280;59993;53.052;18.576;2022-08-25T09:13:12;101241.78;;;22.16;100.00
72120;BME280;59993;53.052;18.576;2022-08-25T09:15:50;101233.34;;;22.11;100.00
72120;BME280;59993;53.052;18.576;2022-08-25T09:18:41;101233.19;;;22.05;100.00
72120;BME280;59993;53.052;18.576;2022-08-25T09:21:33;101231.84;;;22.25;100.00
72120;BME280;59993;53.052;18.576;2022-08-25T09:30:05;101221.91;;;22.34;100.00
72120;BME280;59993;53.052;18.576;2022-08-25T09:32:37;101220.22;;;22.33;100.00
72120;BME280;59993;53.052;18.576;2022-08-25T09:35:04;101229.50;;;22.39;100.00
72120;BME280;59993;53.052;18.576;2022-08-25T09:37:30;101233.69;;;22.49;100.00
72120;BME280;59993;53.052;18.576;2022-08-25T09:39:56;101225.28;;;22.44;100.00
72120;BME280;59993;53.052;18.576;2022-08-25T09:42:45;101223.50;;;22.76;100.00
72120;BME280;59993;53.052;18.576;2022-08-25T09:45:12;101219.94;;;22.76;100.00
72120;BME280;59993;53.052;18.576;2022-08-25T09:47:44;101218.06;;;22.84;100.00
72120;BME280;59993;53.052;18.576;2022-08-25T09:50:18;101218.38;;;22.98;98.76
72120;BME280;59993;53.052;18.576;2022-08-25T09:52:44;101217.38;;;22.99;98.19
72120;BME280;59993;53.052;18.576;2022-08-25T10:00:17;101217.00;;;23.02;98.29
72120;BME280;59993;53.052;18.576;2022-08-25T10:03:07;101213.78;;;22.98;97.34
72120;BME280;59993;53.052;18.576;2022-08-25T10:08:37;101217.03;;;22.94;97.48
72120;BME280;59993;53.052;18.576;2022-08-25T10:11:09;101216.84;;;23.03;97.61
72120;BME280;59993;53.052;18.576;2022-08-25T10:13:48;101211.16;;;23.30;97.42
72120;BME280;59993;53.052;18.576;2022-08-25T10:16:24;101204.41;;;23.26;97.16
72120;BME280;59993;53.052;18.576;2022-08-25T10:22:08;101199.97;;;23.33;95.92
72120;BME280;59993;53.052;18.576;2022-08-25T10:24:35;101197.91;;;23.43;98.27
72120;BME280;59993;53.052;18.576;2022-08-25T10:35:28;101181.22;;;23.77;95.67
72120;BME280;59993;53.052;18.576;2022-08-25T10:40:51;101179.03;;;23.81;91.14
72120;BME280;59993;53.052;18.576;2022-08-25T10:43:34;101179.47;;;24.08;92.60
72120;BME280;59993;53.052;18.576;2022-08-25T10:49:19;101176.50;;;24.03;91.96
72120;BME280;59993;53.052;18.576;2022-08-25T10:52:00;101162.00;;;23.95;92.83
72120;BME280;59993;53.052;18.576;2022-08-25T10:54:46;101172.31;;;24.15;90.00
72120;BME280;59993;53.052;18.576;2022-08-25T11:02:50;101173.81;;;24.18;89.32
72120;BME280;59993;53.052;18.576;2022-08-25T11:08:09;101165.56;;;24.11;88.79
72120;BME280;59993;53.052;18.576;2022-08-25T11:10:50;101164.34;;;23.99;91.31
72120;BME280;59993;53.052;18.576;2022-08-25T11:13:37;101161.88;;;23.66;92.68
72120;BME280;59993;53.052;18.576;2022-08-25T11:16:13;101162.13;;;23.56;93.47
72120;BME280;59993;53.052;18.576;2022-08-25T11:19:06;101156.47;;;23.66;91.57
72120;BME280;59993;53.052;18.576;2022-08-25T11:21:48;101153.03;;;23.72;93.02
72120;BME280;59993;53.052;18.576;2022-08-25T11:27:24;101148.78;;;24.01;91.73
72120;BME280;59993;53.052;18.576;2022-08-25T11:29:58;101143.13;;;24.40;90.14
72120;BME280;59993;53.052;18.576;2022-08-25T11:32:27;101134.31;;;24.38;91.65
72120;BME280;59993;53.052;18.576;2022-08-25T11:35:07;101137.59;;;24.34;91.07
72120;BME280;59993;53.052;18.576;2022-08-25T11:37:33;101131.25;;;24.26;88.37
72120;BME280;59993;53.052;18.576;2022-08-25T11:51:45;101122.97;;;24.94;88.48
72120;BME280;59993;53.052;18.576;2022-08-25T11:54:29;101125.06;;;24.92;88.03
72120;BME280;59993;53.052;18.576;2022-08-25T11:57:04;101126.44;;;25.03;87.61
72120;BME280;59993;53.052;18.576;2022-08-25T12:05:02;101114.03;;;24.79;87.64
72120;BME280;59993;53.052;18.576;2022-08-25T12:13:41;101118.38;;;25.46;82.72
72120;BME280;59993;53.052;18.576;2022-08-25T12:21:50;101121.31;;;24.93;75.46
72120;BME280;59993;53.052;18.576;2022-08-25T12:24:21;101119.09;;;24.82;75.43
72120;BME280;59993;53.052;18.576;2022-08-25T12:37:22;101117.19;;;24.97;76.92
72120;BME280;59993;53.052;18.576;2022-08-25T12:42:30;101109.88;;;25.13;77.70
72120;BME280;59993;53.052;18.576;2022-08-25T12:47:51;101097.31;;;25.12;76.02
72120;BME280;59993;53.052;18.576;2022-08-25T12:52:52;101085.47;;;25.34;76.87
72120;BME280;59993;53.052;18.576;2022-08-25T12:55:21;101087.66;;;25.46;77.17
72120;BME280;59993;53.052;18.576;2022-08-25T12:57:53;101081.03;;;25.98;76.19
72120;BME280;59993;53.052;18.576;2022-08-25T13:00:25;101081.97;;;25.62;75.53
72120;BME280;59993;53.052;18.576;2022-08-25T13:11:55;101061.47;;;25.60;75.01
72120;BME280;59993;53.052;18.576;2022-08-25T13:17:00;101057.97;;;25.66;74.67
72120;BME280;59993;53.052;18.576;2022-08-25T13:19:26;101066.75;;;25.96;73.12
72120;BME280;59993;53.052;18.576;2022-08-25T13:21:53;101065.38;;;25.79;75.19
72120;BME280;59993;53.052;18.576;2022-08-25T13:24:21;101060.34;;;25.76;75.88
72120;BME280;59993;53.052;18.576;2022-08-25T13:26:55;101061.25;;;25.83;75.29
72120;BME280;59993;53.052;18.576;2022-08-25T13:29:24;101064.47;;;25.71;73.76
72120;BME280;59993;53.052;18.576;2022-08-25T13:31:52;101061.28;;;25.89;74.87
72120;BME280;59993;53.052;18.576;2022-08-25T13:34:23;101056.34;;;25.71;75.21
72120;BME280;59993;53.052;18.576;2022-08-25T13:36:49;101060.44;;;25.89;74.29
72120;BME280;59993;53.052;18.576;2022-08-25T13:39:35;101060.06;;;25.92;75.67
72120;BME280;59993;53.052;18.576;2022-08-25T13:42:03;101064.16;;;26.10;74.29
72120;BME280;59993;53.052;18.576;2022-08-25T13:44:34;101064.72;;;25.98;76.85
72120;BME280;59993;53.052;18.576;2022-08-25T13:47:32;101064.72;;;25.98;74.74
72120;BME280;59993;53.052;18.576;2022-08-25T13:50:36;101051.31;;;25.97;75.88
72120;BME280;59993;53.052;18.576;2022-08-25T13:53:13;101056.84;;;26.10;75.76
72120;BME280;59993;53.052;18.576;2022-08-25T13:58:18;101053.47;;;26.08;75.09
72120;BME280;59993;53.052;18.576;2022-08-25T14:01:29;101052.75;;;26.21;74.93
72120;BME280;59993;53.052;18.576;2022-08-25T14:07:14;101040.19;;;26.27;75.48
72120;BME280;59993;53.052;18.576;2022-08-25T14:09:48;101037.28;;;26.28;76.10
72120;BME280;59993;53.052;18.576;2022-08-25T14:17:43;101033.06;;;26.19;75.41
72120;BME280;59993;53.052;18.576;2022-08-25T14:20:22;101023.13;;;26.39;76.11
72120;BME280;59993;53.052;18.576;2022-08-25T14:22:59;101027.75;;;26.46;73.57
72120;BME280;59993;53.052;18.576;2022-08-25T14:25:27;101021.03;;;26.41;74.13
72120;BME280;59993;53.052;18.576;2022-08-25T14:27:59;101033.13;;;26.32;73.26
72120;BME280;59993;53.052;18.576;2022-08-25T14:30:26;101030.75;;;26.16;74.92
72120;BME280;59993;53.052;18.576;2022-08-25T14:32:51;101023.78;;;26.06;74.20
72120;BME280;59993;53.052;18.576;2022-08-25T14:35:17;101022.38;;;26.11;74.71
72120;BME280;59993;53.052;18.576;2022-08-25T14:37:43;101017.22;;;26.22;74.79
72120;BME280;59993;53.052;18.576;2022-08-25T14:40:10;101017.44;;;26.28;74.55
72120;BME280;59993;53.052;18.576;2022-08-25T14:42:38;101013.88;;;26.27;74.70
72120;BME280;59993;53.052;18.576;2022-08-25T14:45:04;101013.41;;;26.17;76.48
72120;BME280;59993;53.052;18.576;2022-08-25T14:47:30;101005.25;;;26.17;75.08
72120;BME280;59993;53.052;18.576;2022-08-25T14:49:56;101005.06;;;26.18;76.51
72120;BME280;59993;53.052;18.576;2022-08-25T14:52:25;101010.50;;;26.25;75.67
72120;BME280;59993;53.052;18.576;2022-08-25T14:54:51;101009.97;;;26.43;74.93
72120;BME280;59993;53.052;18.576;2022-08-25T14:57:17;101004.97;;;26.47;76.04
72120;BME280;59993;53.052;18.576;2022-08-25T14:59:43;101007.25;;;26.43;74.00
72120;BME280;59993;53.052;18.576;2022-08-25T15:02:10;101010.16;;;26.41;74.47
72120;BME280;59993;53.052;18.576;2022-08-25T15:04:38;101007.72;;;26.60;73.55
72120;BME280;59993;53.052;18.576;2022-08-25T15:07:04;101004.84;;;26.68;72.81
72120;BME280;59993;53.052;18.576;2022-08-25T15:09:49;101013.34;;;26.52;73.51
72120;BME280;59993;53.052;18.576;2022-08-25T15:12:15;101009.34;;;26.48;74.54
72120;BME280;59993;53.052;18.576;2022-08-25T15:14:41;101008.13;;;26.57;73.44
72120;BME280;59993;53.052;18.576;2022-08-25T15:17:06;101001.66;;;26.58;73.71
72120;BME280;59993;53.052;18.576;2022-08-25T15:19:32;100996.91;;;26.73;71.71
72120;BME280;59993;53.052;18.576;2022-08-25T15:21:59;100997.34;;;26.84;72.33
72120;BME280;59993;53.052;18.576;2022-08-25T15:24:25;100996.13;;;26.86;71.91
72120;BME280;59993;53.052;18.576;2022-08-25T15:26:54;101006.97;;;26.66;75.22
72120;BME280;59993;53.052;18.576;2022-08-25T15:29:21;100996.00;;;26.59;74.64
72120;BME280;59993;53.052;18.576;2022-08-25T15:31:47;100996.69;;;26.68;75.39
72120;BME280;59993;53.052;18.576;2022-08-25T15:34:13;100995.41;;;26.64;75.70
72120;BME280;59993;53.052;18.576;2022-08-25T15:36:40;100992.28;;;26.67;76.14
72120;BME280;59993;53.052;18.576;2022-08-25T15:39:06;100992.28;;;26.67;76.32
72120;BME280;59993;53.052;18.576;2022-08-25T15:41:32;100986.19;;;26.65;75.93
72120;BME280;59993;53.052;18.576;2022-08-25T15:43:58;100984.50;;;26.64;76.03
72120;BME280;59993;53.052;18.576;2022-08-25T15:46:27;100981.44;;;26.81;76.20
72120;BME280;59993;53.052;18.576;2022-08-25T15:48:55;100980.53;;;26.60;77.24
72120;BME280;59993;53.052;18.576;2022-08-25T15:51:22;100977.19;;;26.58;77.31
72120;BME280;59993;53.052;18.576;2022-08-25T15:53:48;100972.97;;;26.49;78.24
72120;BME280;59993;53.052;18.576;2022-08-25T15:56:13;100972.16;;;26.62;78.32
72120;BME280;59993;53.052;18.576;2022-08-25T15:58:42;100971.53;;;26.53;78.84
72120;BME280;59993;53.052;18.576;2022-08-25T16:01:12;100972.56;;;26.58;78.58
72120;BME280;59993;53.052;18.576;2022-08-25T16:03:38;100967.31;;;26.44;79.26
72120;BME280;59993;53.052;18.576;2022-08-25T16:06:04;100962.91;;;26.42;80.71
72120;BME280;59993;53.052;18.576;2022-08-25T16:08:30;100964.19;;;26.47;80.21
72120;BME280;59993;53.052;18.576;2022-08-25T16:10:55;100950.56;;;26.33;81.27
72120;BME280;59993;53.052;18.576;2022-08-25T16:13:21;100954.97;;;26.48;80.52
72120;BME280;59993;53.052;18.576;2022-08-25T16:15:47;100958.09;;;26.38;81.15
72120;BME280;59993;53.052;18.576;2022-08-25T16:18:13;100956.41;;;26.30;82.28
72120;BME280;59993;53.052;18.576;2022-08-25T16:20:43;100949.31;;;26.42;81.39
72120;BME280;59993;53.052;18.576;2022-08-25T16:23:09;100949.91;;;26.31;81.84
72120;BME280;59993;53.052;18.576;2022-08-25T16:25:42;100947.03;;;26.39;81.71
72120;BME280;59993;53.052;18.576;2022-08-25T16:28:11;100949.88;;;26.18;82.63
72120;BME280;59993;53.052;18.576;2022-08-25T16:30:37;100946.09;;;26.19;83.20
72120;BME280;59993;53.052;18.576;2022-08-25T16:33:05;100940.44;;;26.14;83.19
72120;BME280;59993;53.052;18.576;2022-08-25T16:35:31;100946.91;;;26.13;84.00
72120;BME280;59993;53.052;18.576;2022-08-25T16:37:56;100947.72;;;26.06;84.00
72120;BME280;59993;53.052;18.576;2022-08-25T16:40:22;100938.50;;;26.01;84.72
72120;BME280;59993;53.052;18.576;2022-08-25T16:42:51;100940.28;;;25.87;86.15
72120;BME280;59993;53.052;18.576;2022-08-25T16:45:18;100937.13;;;25.77;87.67
72120;BME280;59993;53.052;18.576;2022-08-25T16:47:44;100942.34;;;25.78;86.98
72120;BME280;59993;53.052;18.576;2022-08-25T16:50:09;100938.75;;;25.71;87.42
72120;BME280;59993;53.052;18.576;2022-08-25T16:52:35;100936.63;;;25.66;88.55
72120;BME280;59993;53.052;18.576;2022-08-25T16:55:19;100937.19;;;25.55;89.12
72120;BME280;59993;53.052;18.576;2022-08-25T16:57:51;100934.63;;;25.47;89.75
72120;BME280;59993;53.052;18.576;2022-08-25T17:00:22;100938.13;;;25.41;90.37
72120;BME280;59993;53.052;18.576;2022-08-25T17:03:00;100937.81;;;25.29;91.53
72120;BME280;59993;53.052;18.576;2022-08-25T17:05:30;100936.97;;;25.28;91.76
72120;BME280;59993;53.052;18.576;2022-08-25T17:07:59;100940.47;;;25.22;92.18
72120;BME280;59993;53.052;18.576;2022-08-25T17:10:43;100938.28;;;25.11;92.23
72120;BME280;59993;53.052;18.576;2022-08-25T17:13:10;100945.78;;;25.09;93.36
72120;BME280;59993;53.052;18.576;2022-08-25T17:15:40;100944.50;;;25.05;93.53
72120;BME280;59993;53.052;18.576;2022-08-25T17:18:06;100934.38;;;24.92;94.68
72120;BME280;59993;53.052;18.576;2022-08-25T17:20:31;100945.16;;;24.85;94.53
72120;BME280;59993;53.052;18.576;2022-08-25T17:22:58;100941.28;;;24.73;95.74
72120;BME280;59993;53.052;18.576;2022-08-25T17:25:25;100941.28;;;24.73;96.36
72120;BME280;59993;53.052;18.576;2022-08-25T17:27:50;100947.47;;;24.67;95.60
72120;BME280;59993;53.052;18.576;2022-08-25T17:30:16;100949.94;;;24.61;96.89
72120;BME280;59993;53.052;18.576;2022-08-25T17:32:41;100951.06;;;24.52;96.95
72120;BME280;59993;53.052;18.576;2022-08-25T17:35:07;100940.97;;;24.46;97.03
72120;BME280;59993;53.052;18.576;2022-08-25T17:37:33;100949.66;;;24.41;96.44
72120;BME280;59993;53.052;18.576;2022-08-25T17:39:58;100940.84;;;24.33;97.19
72120;BME280;59993;53.052;18.576;2022-08-25T17:42:24;100947.78;;;24.20;97.50
72120;BME280;59993;53.052;18.576;2022-08-25T17:44:49;100945.72;;;24.22;96.45
72120;BME280;59993;53.052;18.576;2022-08-25T17:47:15;100945.16;;;24.12;96.98
72120;BME280;59993;53.052;18.576;2022-08-25T17:49:41;100950.50;;;24.05;97.20
72120;BME280;59993;53.052;18.576;2022-08-25T17:52:06;100942.00;;;23.93;97.55
72120;BME280;59993;53.052;18.576;2022-08-25T17:54:32;100944.06;;;23.91;97.43
72120;BME280;59993;53.052;18.576;2022-08-25T17:56:58;100944.13;;;23.83;97.67
72120;BME280;59993;53.052;18.576;2022-08-25T17:59:23;100943.00;;;23.77;98.78
72120;BME280;59993;53.052;18.576;2022-08-25T18:01:49;100947.50;;;23.70;99.40
72120;BME280;59993;53.052;18.576;2022-08-25T18:04:16;100951.22;;;23.69;99.47
72120;BME280;59993;53.052;18.576;2022-08-25T18:06:41;100953.16;;;23.60;99.23
72120;BME280;59993;53.052;18.576;2022-08-25T18:09:07;100949.88;;;23.50;100.00
72120;BME280;59993;53.052;18.576;2022-08-25T18:11:34;100949.25;;;23.48;100.00
72120;BME280;59993;53.052;18.576;2022-08-25T18:14:00;100952.13;;;23.47;100.00
72120;BME280;59993;53.052;18.576;2022-08-25T18:16:26;100956.13;;;23.36;100.00
72120;BME280;59993;53.052;18.576;2022-08-25T18:18:53;100959.19;;;23.33;100.00
72120;BME280;59993;53.052;18.576;2022-08-25T18:21:20;100954.16;;;23.30;100.00
72120;BME280;59993;53.052;18.576;2022-08-25T18:23:46;100952.38;;;23.22;100.00
72120;BME280;59993;53.052;18.576;2022-08-25T18:26:13;100956.28;;;23.19;100.00
72120;BME280;59993;53.052;18.576;2022-08-25T18:28:39;100950.94;;;23.11;100.00
72120;BME280;59993;53.052;18.576;2022-08-25T18:31:05;100957.72;;;23.07;100.00
72120;BME280;59993;53.052;18.576;2022-08-25T18:33:30;100964.50;;;23.03;100.00
72120;BME280;59993;53.052;18.576;2022-08-25T18:35:56;100953.84;;;23.01;100.00
72120;BME280;59993;53.052;18.576;2022-08-25T18:38:23;100961.97;;;23.01;100.00
72120;BME280;59993;53.052;18.576;2022-08-25T18:41:08;100956.28;;;22.96;100.00
72120;BME280;59993;53.052;18.576;2022-08-25T18:46:02;100953.63;;;22.88;100.00
72120;BME280;59993;53.052;18.576;2022-08-25T18:48:31;100956.69;;;22.85;100.00
72120;BME280;59993;53.052;18.576;2022-08-25T18:50:57;100959.28;;;22.78;100.00
72120;BME280;59993;53.052;18.576;2022-08-25T18:53:24;100960.66;;;22.74;100.00
72120;BME280;59993;53.052;18.576;2022-08-25T18:55:50;100966.13;;;22.66;100.00
72120;BME280;59993;53.052;18.576;2022-08-25T18:58:19;100961.44;;;22.60;100.00
72120;BME280;59993;53.052;18.576;2022-08-25T19:00:45;100958.75;;;22.51;100.00
72120;BME280;59993;53.052;18.576;2022-08-25T19:03:14;100964.88;;;22.45;100.00
72120;BME280;59993;53.052;18.576;2022-08-25T19:05:42;100971.50;;;22.43;100.00
72120;BME280;59993;53.052;18.576;2022-08-25T19:08:11;100969.34;;;22.38;100.00
72120;BME280;59993;53.052;18.576;2022-08-25T19:10:38;100970.34;;;22.29;100.00
